Time;durP1;ratioP1;P1;durP2;ratioP2;P2;SDS_P1;SDS_P2;PMS_P1;PMS_P2;Temp;Humidity;BMP_temperature;BMP_pressure;BME280_temperature;BME280_humidity;BME280_pressure;Samples;Min_cycle;Max_cycle;Signal;HPM_P1;HPM_P2
2023/12/19 00:04:18;;;;;;;11.13;7.78;;;;;;;16.22;62.48;102314.19;10538412;28;20270;-52
2023/12/19 00:09:18;;;;;;;9.88;7.68;;;;;;;16.21;61.97;102301.00;10537963;28;20032;-52
2023/12/19 00:14:18;;;;;;;11.07;8.03;;;;;;;16.19;62.39;102298.59;10538163;28;20020;-50
2023/12/19 00:19:19;;;;;;;10.63;7.10;;;;;;;16.19;61.99;102300.44;10538115;28;20809;-49
2023/12/19 00:24:19;;;;;;;12.07;8.43;;;;;;;16.17;61.56;102279.28;10537671;28;20309;-51
2023/12/19 00:29:19;;;;;;;10.83;8.00;;;;;;;16.15;61.41;102267.19;10537856;28;20278;-48
2023/12/19 00:34:20;;;;;;;12.00;8.53;;;;;;;16.13;61.84;102243.38;10537043;28;20285;-48
2023/12/19 00:39:20;;;;;;;13.47;7.67;;;;;;;16.12;61.60;102243.63;10537453;28;20297;-51
2023/12/19 00:44:20;;;;;;;11.67;7.90;;;;;;;16.11;62.75;102242.81;10529720;28;20269;-52
2023/12/19 00:49:20;;;;;;;10.00;7.37;;;;;;;16.10;61.91;102235.78;10536132;28;20282;-52
2023/12/19 00:54:21;;;;;;;9.97;6.57;;;;;;;16.07;61.17;102222.91;10536492;28;20852;-52
2023/12/19 00:59:22;;;;;;;12.70;8.57;;;;;;;16.06;62.32;102208.72;10518430;28;20352;-53
2023/12/19 01:04:22;;;;;;;11.35;7.68;;;;;;;16.05;61.40;102203.63;10535994;28;20019;-51
2023/12/19 01:09:22;;;;;;;9.70;6.60;;;;;;;16.04;61.64;102202.81;10517731;28;20655;-52
2023/12/19 01:14:23;;;;;;;12.57;7.10;;;;;;;16.04;61.27;102207.34;10535541;28;20270;-50
2023/12/19 01:19:24;;;;;;;10.70;6.57;;;;;;;16.02;61.25;102191.53;10535925;28;20031;-51
2023/12/19 01:24:24;;;;;;;10.20;6.35;;;;;;;16.02;62.16;102196.09;10535110;28;20276;-49
2023/12/19 01:29:24;;;;;;;13.30;6.70;;;;;;;16.01;62.11;102192.59;10535427;28;20040;-50
2023/12/19 01:34:24;;;;;;;9.27;6.30;;;;;;;16.01;62.15;102184.56;10534832;28;20270;-49
2023/12/19 01:39:26;;;;;;;9.95;6.82;;;;;;;15.99;61.08;102177.84;10535031;28;20270;-50
2023/12/19 01:44:26;;;;;;;10.00;7.30;;;;;;;15.99;62.17;102191.22;10534877;28;20032;-50
2023/12/19 01:49:27;;;;;;;10.20;6.22;;;;;;;15.97;62.40;102185.28;10515954;28;20028;-50
2023/12/19 01:54:27;;;;;;;8.82;6.03;;;;;;;15.95;60.73;102168.66;10534656;28;20107;-51
2023/12/19 01:59:28;;;;;;;8.52;5.63;;;;;;;15.93;61.76;102155.53;10533814;28;20051;-50
2023/12/19 02:04:28;;;;;;;9.40;6.87;;;;;;;15.93;62.00;102160.88;10516036;28;20043;-51
2023/12/19 02:09:28;;;;;;;9.47;7.33;;;;;;;15.93;61.42;102146.69;10533472;28;20375;-52
2023/12/19 02:14:29;;;;;;;9.70;7.30;;;;;;;15.90;62.43;102139.97;10515490;28;20278;-52
2023/12/19 02:19:29;;;;;;;8.15;6.20;;;;;;;15.91;61.37;102128.22;10533172;28;20030;-49
2023/12/19 02:24:29;;;;;;;9.50;5.90;;;;;;;15.90;61.82;102128.47;10533597;28;20028;-49
2023/12/19 02:29:30;;;;;;;7.72;5.35;;;;;;;15.88;61.72;102123.38;10532601;28;20289;-50
2023/12/19 02:34:30;;;;;;;8.25;6.47;;;;;;;15.86;62.46;102116.63;10515046;28;20514;-49
2023/12/19 02:39:30;;;;;;;8.45;5.70;;;;;;;15.85;60.98;102113.13;10532335;28;20024;-52
2023/12/19 02:44:31;;;;;;;6.53;5.07;;;;;;;15.85;61.37;102112.31;10526344;28;20356;-51
2023/12/19 02:49:31;;;;;;;10.10;6.50;;;;;;;15.85;61.76;102098.94;10532414;28;20294;-50
2023/12/19 02:54:31;;;;;;;8.53;6.13;;;;;;;15.84;62.08;102081.28;10532947;28;20805;-48
2023/12/19 02:59:31;;;;;;;10.10;6.33;;;;;;;15.82;60.77;102075.38;10532399;28;20339;-47
2023/12/19 03:04:32;;;;;;;7.93;6.30;;;;;;;15.82;62.37;102062.00;10532666;28;20280;-52
2023/12/19 03:09:32;;;;;;;9.20;5.75;;;;;;;15.79;61.74;102042.72;10533804;28;20294;-49
2023/12/19 03:14:34;;;;;;;8.43;6.07;;;;;;;15.79;61.10;102039.22;10495442;28;20035;-51
2023/12/19 03:19:36;;;;;;;8.70;5.90;;;;;;;15.76;62.12;102027.16;10540331;28;20024;-50
2023/12/19 03:24:36;;;;;;;7.47;5.70;;;;;;;15.78;61.17;102018.91;10540415;28;20020;-51
2023/12/19 03:29:37;;;;;;;6.10;4.80;;;;;;;15.76;60.88;102015.66;10539707;28;20489;-50
2023/12/19 03:34:38;;;;;;;6.75;5.45;;;;;;;15.75;61.87;102001.47;10540079;28;20317;-51
2023/12/19 03:39:38;;;;;;;6.47;4.95;;;;;;;15.79;62.19;102012.50;10539309;28;20024;-50
2023/12/19 03:44:41;;;;;;;7.72;5.43;;;;;;;15.97;60.50;102011.41;10531189;28;20101;-51
2023/12/19 03:49:42;;;;;;;8.18;5.53;;;;;;;16.22;61.21;102001.06;10539019;28;20036;-50
2023/12/19 03:54:42;;;;;;;6.95;5.40;;;;;;;16.49;59.15;101993.09;10521009;28;20031;-50
2023/12/19 03:59:44;;;;;;;6.13;5.00;;;;;;;16.73;59.39;101969.56;10538501;28;20028;-50
2023/12/19 04:04:44;;;;;;;6.47;4.88;;;;;;;16.92;57.99;101967.31;10539034;28;20024;-51
2023/12/19 04:09:44;;;;;;;6.45;4.18;;;;;;;17.11;57.88;101951.69;10500162;28;20044;-52
2023/12/19 04:14:45;;;;;;;8.03;5.13;;;;;;;17.24;58.57;101941.34;10494052;28;20033;-52
2023/12/19 04:19:45;;;;;;;6.07;4.73;;;;;;;17.42;57.40;101940.13;10470869;28;20714;-50
2023/12/19 04:24:45;;;;;;;10.52;4.28;;;;;;;17.62;56.82;101930.59;10468250;28;20287;-49
2023/12/19 04:29:46;;;;;;;7.10;4.50;;;;;;;17.69;57.58;101915.94;10470479;28;20028;-51
2023/12/19 04:34:46;;;;;;;6.22;4.25;;;;;;;17.85;57.61;101924.03;10470082;28;20279;-51
2023/12/19 04:39:46;;;;;;;7.00;4.97;;;;;;;17.91;56.99;101913.09;10469198;28;20448;-50
2023/12/19 04:44:47;;;;;;;5.90;4.95;;;;;;;18.06;57.80;101915.03;10469156;28;20275;-51
2023/12/19 04:49:47;;;;;;;4.97;4.07;;;;;;;18.17;56.78;101899.75;10475880;28;20025;-50
2023/12/19 04:54:48;;;;;;;5.45;3.95;;;;;;;18.15;56.74;101885.81;10493196;28;20027;-50
2023/12/19 04:59:48;;;;;;;6.38;4.30;;;;;;;18.19;57.30;101882.31;10494639;28;20483;-54
2023/12/19 05:04:48;;;;;;;5.83;3.93;;;;;;;18.18;55.88;101869.97;10476600;28;20033;-52
2023/12/19 05:09:49;;;;;;;5.83;3.90;;;;;;;18.18;56.59;101877.22;10531484;28;20351;-54
2023/12/19 05:14:49;;;;;;;4.88;3.60;;;;;;;18.13;56.08;101872.66;10530586;28;20342;-53
2023/12/19 05:19:49;;;;;;;5.40;4.22;;;;;;;18.10;56.37;101870.47;10522807;28;20031;-53
2023/12/19 05:24:50;;;;;;;6.70;4.60;;;;;;;18.09;57.06;101866.97;10533012;28;20406;-56
2023/12/19 05:29:50;;;;;;;4.10;3.33;;;;;;;18.13;56.81;101853.88;10500507;28;20305;-51
2023/12/19 05:34:51;;;;;;;5.38;4.07;;;;;;;18.10;56.20;101844.44;10529122;28;20379;-51
2023/12/19 05:39:51;;;;;;;5.70;4.10;;;;;;;18.05;57.21;101860.53;10516531;28;20035;-53
2023/12/19 05:44:51;;;;;;;6.83;3.90;;;;;;;17.99;57.05;101850.84;10524559;28;20036;-49
2023/12/19 05:49:52;;;;;;;5.15;3.75;;;;;;;18.03;56.90;101854.63;10523991;28;20741;-49
2023/12/19 05:54:52;;;;;;;5.80;3.63;;;;;;;17.96;57.03;101853.25;10534935;28;20035;-52
2023/12/19 05:59:52;;;;;;;5.60;3.63;;;;;;;17.96;56.98;101848.69;10533690;28;20804;-51
2023/12/19 06:04:53;;;;;;;4.50;3.30;;;;;;;17.96;57.21;101842.53;10533950;28;20289;-50
2023/12/19 06:09:53;;;;;;;6.13;3.43;;;;;;;18.05;57.58;101854.38;10524691;28;20051;-51
2023/12/19 06:14:53;;;;;;;8.52;4.28;;;;;;;18.04;57.16;101845.50;10533860;28;20273;-51
2023/12/19 06:19:53;;;;;;;10.97;4.00;;;;;;;17.97;58.74;101836.88;10533415;28;20368;-49
2023/12/19 06:24:55;;;;;;;8.32;4.28;;;;;;;18.02;58.10;101820.00;10533599;28;20293;-50
2023/12/19 06:29:55;;;;;;;15.83;4.67;;;;;;;18.00;58.08;101814.13;10532909;28;20017;-51
2023/12/19 06:34:57;;;;;;;10.18;3.15;;;;;;;17.91;59.03;101821.06;10515117;28;20274;-51
2023/12/19 06:39:57;;;;;;;10.52;4.47;;;;;;;17.88;58.68;101816.19;10514275;28;20504;-52
2023/12/19 06:44:58;;;;;;;21.33;3.93;;;;;;;17.80;59.06;101812.16;10523260;28;20073;-49
2023/12/19 06:49:59;;;;;;;17.48;4.10;;;;;;;17.73;58.64;101803.53;10518784;28;20716;-49
2023/12/19 06:55:00;;;;;;;14.50;4.85;;;;;;;17.78;58.80;101792.84;10532764;28;20067;-47
2023/12/19 07:00:00;;;;;;;13.57;4.85;;;;;;;17.76;58.41;101795.00;10531929;28;20016;-50
2023/12/19 07:05:00;;;;;;;16.47;5.43;;;;;;;17.70;59.16;101794.16;10532580;28;20032;-49
2023/12/19 07:10:01;;;;;;;49.05;6.97;;;;;;;17.60;59.85;101790.59;10531592;28;20305;-47
2023/12/19 07:15:04;;;;;;;21.92;6.40;;;;;;;17.65;59.74;101788.75;10532359;28;20119;-50
2023/12/19 07:20:05;;;;;;;16.92;5.05;;;;;;;17.69;59.46;101789.84;10531465;28;20035;-49
2023/12/19 07:25:05;;;;;;;17.40;4.80;;;;;;;17.69;58.29;101775.66;10532327;28;20127;-48
2023/12/19 07:30:06;;;;;;;16.33;4.57;;;;;;;17.64;59.22;101773.72;10531481;28;20028;-48
2023/12/19 07:35:08;;;;;;;11.88;5.05;;;;;;;17.70;57.79;101787.97;10531424;28;20051;-49
2023/12/19 07:40:10;;;;;;;12.75;5.05;;;;;;;17.62;58.27;101796.50;10529866;28;20058;-51
2023/12/19 07:45:11;;;;;;;10.52;4.18;;;;;;;17.58;58.00;101790.84;10520343;28;20023;-51
2023/12/19 07:50:11;;;;;;;11.50;4.13;;;;;;;17.73;59.06;101776.72;10528626;28;20039;-53
2023/12/19 07:55:12;;;;;;;10.75;4.32;;;;;;;17.67;57.44;101767.03;10531131;28;20020;-49
2023/12/19 08:00:13;;;;;;;15.70;4.68;;;;;;;17.61;57.85;101768.88;10534213;28;20475;-51
2023/12/19 08:05:13;;;;;;;10.82;4.13;;;;;;;17.68;58.12;101771.31;10533548;28;20104;-52
2023/12/19 08:10:13;;;;;;;10.73;5.10;;;;;;;17.65;57.45;101766.50;10531142;28;20511;-52
2023/12/19 08:15:14;;;;;;;11.27;5.27;;;;;;;17.70;58.61;101751.22;10513515;28;20062;-52
2023/12/19 08:20:15;;;;;;;8.30;4.63;;;;;;;17.66;57.48;101747.44;10529964;28;20269;-51
2023/12/19 08:25:17;;;;;;;10.05;3.88;;;;;;;17.65;57.57;101748.53;10530655;28;20278;-51
2023/12/19 08:30:17;;;;;;;7.47;3.63;;;;;;;17.69;58.09;101740.78;10534083;28;20016;-52
2023/12/19 08:35:18;;;;;;;8.05;4.03;;;;;;;17.69;57.39;101735.41;10525394;28;20044;-52
2023/12/19 08:40:19;;;;;;;8.57;3.75;;;;;;;17.60;58.56;101731.59;10521458;28;20046;-50
2023/12/19 08:45:23;;;;;;;7.15;3.80;;;;;;;17.65;57.35;101721.69;10535930;28;20415;-52
2023/12/19 08:50:23;;;;;;;8.82;3.80;;;;;;;17.59;57.48;101705.84;10524234;28;20071;-51
2023/12/19 08:55:23;;;;;;;5.77;3.20;;;;;;;17.62;57.64;101727.56;10535518;28;20059;-50
2023/12/19 09:00:24;;;;;;;8.15;3.88;;;;;;;17.59;57.52;101720.06;10531340;28;20715;-52
2023/12/19 09:05:24;;;;;;;6.90;4.27;;;;;;;17.61;60.12;101709.06;10514374;28;20032;-51
2023/12/19 09:10:24;;;;;;;7.38;4.43;;;;;;;17.64;60.78;101716.56;10531069;28;20333;-47
2023/12/19 09:15:25;;;;;;;7.07;3.73;;;;;;;17.66;59.85;101711.78;10492734;28;20036;-50
2023/12/19 09:20:25;;;;;;;7.03;3.47;;;;;;;17.59;59.19;101708.53;10519950;28;20342;-52
2023/12/19 09:25:25;;;;;;;8.90;4.15;;;;;;;17.59;60.14;101703.16;10529259;28;20772;-50
2023/12/19 09:30:26;;;;;;;6.13;3.90;;;;;;;17.58;58.72;101705.03;10529624;28;20066;-51
2023/12/19 09:35:26;;;;;;;5.77;3.37;;;;;;;17.53;58.46;101703.16;10533692;28;20274;-51
2023/12/19 09:40:29;;;;;;;8.57;3.73;;;;;;;17.46;59.28;101688.38;10510988;28;20366;-48
2023/12/19 09:45:30;;;;;;;6.50;4.10;;;;;;;17.39;58.80;101691.31;10516283;28;20317;-46
2023/12/19 09:50:32;;;;;;;7.80;3.92;;;;;;;17.31;59.32;101683.78;10534620;28;20467;-51
2023/12/19 09:55:32;;;;;;;6.35;3.20;;;;;;;17.22;59.76;101672.75;10493767;28;20039;-52
2023/12/19 10:00:34;;;;;;;5.00;2.85;;;;;;;17.16;59.95;101660.41;10526206;28;20065;-49
2023/12/19 10:05:34;;;;;;;4.65;3.92;;;;;;;17.10;60.04;101652.63;10533873;28;20055;-51
2023/12/19 10:10:54;;;;;;;4.63;2.90;;;;;;;17.04;60.79;101653.66;10533745;28;20036;-49
2023/12/19 10:16:06;;;;;;;6.78;2.80;;;;;;;16.98;60.62;101649.34;10533241;28;20047;-48
2023/12/19 10:21:19;;;;;;;5.35;3.85;;;;;;;16.93;60.88;101640.25;10533593;28;20031;-48
2023/12/19 10:26:27;;;;;;;5.07;3.20;;;;;;;16.93;59.14;101629.53;10533554;28;20024;-49
2023/12/19 10:31:27;;;;;;;7.47;3.22;;;;;;;16.88;60.67;101631.34;10532889;28;20024;-52
2023/12/19 10:36:31;;;;;;;7.73;3.00;;;;;;;16.82;61.18;101621.72;10533401;28;20024;-48
2023/12/19 10:41:33;;;;;;;4.38;2.88;;;;;;;16.79;59.93;101616.84;10532610;28;20349;-51
2023/12/19 10:46:33;;;;;;;4.70;2.75;;;;;;;16.75;59.58;101600.50;10515058;28;20020;-49
2023/12/19 10:51:35;;;;;;;4.23;2.67;;;;;;;16.71;60.04;101574.53;10534856;28;20028;-48
2023/12/19 10:57:00;;;;;;;3.70;2.50;;;;;;;16.70;61.01;101578.28;10530263;28;20644;-52
2023/12/19 11:02:11;;;;;;;4.80;3.65;;;;;;;16.70;59.91;101556.84;10482559;28;20512;-48
2023/12/19 11:07:12;;;;;;;4.20;3.20;;;;;;;16.67;60.12;101566.16;10531922;28;20047;-50
2023/12/19 11:12:13;;;;;;;4.10;3.03;;;;;;;16.69;59.45;101549.84;10513206;28;20024;-50
2023/12/19 11:17:35;;;;;;;4.45;3.45;;;;;;;16.67;60.16;101548.25;10513937;28;20383;-51
2023/12/19 11:22:50;;;;;;;4.32;2.88;;;;;;;16.69;60.84;101536.47;10513443;28;20034;-48
2023/12/19 11:28:01;;;;;;;4.75;2.97;;;;;;;16.74;59.50;101523.91;10532294;28;20035;-50
2023/12/19 11:33:05;;;;;;;4.68;3.03;;;;;;;16.76;58.89;101521.78;10518556;28;20464;-51
2023/12/19 11:38:15;;;;;;;3.40;2.50;;;;;;;16.79;60.46;101509.72;10521532;28;20069;-51
2023/12/19 11:43:27;;;;;;;2.67;2.15;;;;;;;16.79;59.19;101491.78;10539173;28;20028;-51
2023/12/19 11:48:35;;;;;;;4.55;2.60;;;;;;;16.78;59.88;101489.38;10525133;28;20092;-49
2023/12/19 11:53:36;;;;;;;4.53;2.15;;;;;;;16.78;59.88;101484.81;10538765;28;20028;-50
2023/12/19 11:58:44;;;;;;;3.33;2.13;;;;;;;16.82;60.51;101480.56;10520637;28;20035;-49
2023/12/19 12:03:45;;;;;;;4.05;2.47;;;;;;;16.79;60.29;101467.66;10540638;28;20072;-51
2023/12/19 12:08:52;;;;;;;4.30;2.78;;;;;;;16.79;60.56;101448.91;10512157;28;20093;-50
2023/12/19 12:14:01;;;;;;;4.57;2.08;;;;;;;16.85;60.45;101437.16;10514583;28;20067;-48
2023/12/19 12:19:13;;;;;;;3.00;1.95;;;;;;;16.84;59.87;101427.53;10538022;28;20020;-47
2023/12/19 12:24:18;;;;;;;3.55;2.17;;;;;;;16.87;60.70;101421.63;10531656;28;20047;-48
2023/12/19 12:29:19;;;;;;;3.75;2.00;;;;;;;16.91;58.97;101422.69;10509548;28;20016;-50
2023/12/19 12:34:21;;;;;;;3.20;2.05;;;;;;;16.89;58.97;101406.09;10533560;28;20116;-50
2023/12/19 12:39:22;;;;;;;2.75;1.80;;;;;;;16.87;59.99;101408.22;10522265;28;20028;-46
2023/12/19 12:44:24;;;;;;;3.40;2.20;;;;;;;16.87;59.65;101399.41;10528408;28;20028;-48
2023/12/19 12:49:24;;;;;;;2.88;1.95;;;;;;;16.86;60.17;101392.44;10521755;28;20020;-48
2023/12/19 12:54:25;;;;;;;3.15;2.22;;;;;;;16.81;59.62;101384.38;10516153;28;20028;-46
2023/12/19 12:59:27;;;;;;;3.53;2.08;;;;;;;16.78;60.45;101383.03;10536537;28;20383;-48
2023/12/19 13:04:27;;;;;;;3.35;1.85;;;;;;;16.85;59.95;101372.88;10536205;28;20552;-50
2023/12/19 13:09:28;;;;;;;4.28;2.17;;;;;;;16.87;58.65;101377.97;10517973;28;20039;-47
2023/12/19 13:14:28;;;;;;;3.30;1.92;;;;;;;16.87;59.92;101370.72;10535891;28;20028;-50
2023/12/19 13:19:28;;;;;;;3.00;1.60;;;;;;;16.79;60.21;101368.56;10536027;28;20032;-50
2023/12/19 13:24:29;;;;;;;5.67;1.80;;;;;;;16.83;59.97;101371.56;10521789;28;20285;-50
2023/12/19 13:29:29;;;;;;;3.45;1.90;;;;;;;16.85;58.97;101364.03;10535423;28;20310;-49
2023/12/19 13:34:29;;;;;;;3.33;1.77;;;;;;;16.84;59.30;101363.25;10534946;28;20476;-50
2023/12/19 13:39:30;;;;;;;7.10;2.07;;;;;;;16.80;60.99;101358.66;10530373;28;20269;-50
2023/12/19 13:44:30;;;;;;;8.40;1.90;;;;;;;16.75;60.17;101356.00;10534471;28;20944;-51
2023/12/19 13:49:31;;;;;;;8.35;3.15;;;;;;;16.85;59.38;101340.75;10531954;28;20296;-53
2023/12/19 13:54:31;;;;;;;4.23;1.70;;;;;;;16.87;59.10;101341.28;10532895;28;20487;-50
2023/12/19 13:59:37;;;;;;;2.93;1.67;;;;;;;16.88;59.96;101344.75;10515287;28;20300;-50
2023/12/19 14:04:37;;;;;;;3.45;1.77;;;;;;;16.86;59.44;101346.91;10532907;28;20276;-49
2023/12/19 14:09:37;;;;;;;3.73;2.03;;;;;;;16.83;60.48;101342.88;10533122;28;20055;-53
2023/12/19 14:14:37;;;;;;;3.10;1.35;;;;;;;16.84;58.90;101347.16;10532905;28;20274;-51
2023/12/19 14:19:38;;;;;;;3.67;1.37;;;;;;;16.84;59.56;101346.38;10532960;28;20020;-50
2023/12/19 14:24:39;;;;;;;3.30;1.88;;;;;;;16.81;60.10;101339.69;10532325;28;20276;-49
2023/12/19 14:29:39;;;;;;;2.63;1.60;;;;;;;16.84;59.68;101317.72;10532788;28;20020;-51
2023/12/19 14:34:41;;;;;;;2.67;1.65;;;;;;;16.84;59.84;101315.03;10531562;28;20028;-50
2023/12/19 14:39:42;;;;;;;2.10;1.50;;;;;;;16.78;60.32;101316.09;10514231;28;20046;-50
2023/12/19 14:44:43;;;;;;;3.08;1.42;;;;;;;16.80;59.43;101305.91;10514016;28;20055;-48
2023/12/19 14:49:43;;;;;;;1.83;1.17;;;;;;;16.80;59.14;101292.50;10531651;28;20479;-49
2023/12/19 14:54:45;;;;;;;3.47;1.83;;;;;;;16.76;59.09;101288.78;10531015;28;20073;-51
2023/12/19 14:59:45;;;;;;;2.88;1.33;;;;;;;16.78;60.02;101283.16;10511546;28;20175;-48
2023/12/19 15:04:47;;;;;;;8.70;2.33;;;;;;;16.84;59.21;101276.72;10532947;28;20520;-50
2023/12/19 15:09:47;;;;;;;12.45;2.80;;;;;;;16.94;59.45;101272.16;10518163;28;20298;-52
2023/12/19 15:14:47;;;;;;;6.40;2.90;;;;;;;16.94;60.42;101274.03;10516944;28;20383;-47
2023/12/19 15:19:48;;;;;;;11.63;2.63;;;;;;;16.94;61.45;101277.53;10517332;28;20024;-51
2023/12/19 15:24:48;;;;;;;9.90;3.08;;;;;;;16.97;61.53;101273.50;10527795;28;20769;-52
2023/12/19 15:29:49;;;;;;;20.83;13.03;;;;;;;16.94;61.49;101269.50;10515085;28;20029;-47
2023/12/19 15:34:49;;;;;;;21.73;10.13;;;;;;;16.91;61.90;101283.41;10525430;28;20262;-49
2023/12/19 15:39:49;;;;;;;19.70;8.23;;;;;;;16.88;60.31;101264.41;10538833;28;20020;-50
2023/12/19 15:44:50;;;;;;;15.47;6.73;;;;;;;16.93;59.99;101264.41;10529913;28;20306;-47
2023/12/19 15:49:50;;;;;;;12.43;6.15;;;;;;;16.95;61.12;101275.66;10520025;28;20317;-49
2023/12/19 15:54:50;;;;;;;10.33;4.63;;;;;;;16.93;60.97;101275.91;10516000;28;20042;-51
2023/12/19 15:59:51;;;;;;;16.63;5.25;;;;;;;17.02;59.12;101273.47;10538772;28;20725;-50
2023/12/19 16:04:51;;;;;;;13.95;5.00;;;;;;;16.97;58.89;101273.50;10536351;28;20027;-52
2023/12/19 16:09:52;;;;;;;15.73;4.20;;;;;;;17.00;58.89;101275.63;10535201;28;20049;-49
2023/12/19 16:14:52;;;;;;;7.57;3.85;;;;;;;16.97;60.44;101284.22;10535629;28;20040;-49
2023/12/19 16:19:53;;;;;;;10.23;3.87;;;;;;;16.91;59.90;101278.03;10529175;28;20020;-49
2023/12/19 16:24:55;;;;;;;11.48;3.17;;;;;;;16.92;59.29;101276.97;10530772;28;20522;-47
2023/12/19 16:29:55;;;;;;;7.60;3.50;;;;;;;17.00;60.52;101275.63;10522965;28;20115;-49
2023/12/19 16:34:55;;;;;;;7.17;2.73;;;;;;;17.02;59.28;101273.47;10526596;28;20034;-48
2023/12/19 16:39:56;;;;;;;9.23;3.60;;;;;;;17.22;59.53;101265.41;10494500;28;20297;-50
2023/12/19 16:44:57;;;;;;;11.27;3.23;;;;;;;17.33;59.88;101270.72;10527444;28;20285;-48
2023/12/19 16:49:58;;;;;;;10.43;3.30;;;;;;;17.36;58.97;101270.97;10527767;28;20652;-47
2023/12/19 16:54:59;;;;;;;6.22;3.53;;;;;;;17.41;59.73;101281.69;10532465;28;20070;-47
2023/12/19 16:59:59;;;;;;;5.60;2.60;;;;;;;17.49;58.45;101283.78;10527455;28;20024;-50
2023/12/19 17:04:59;;;;;;;9.10;3.73;;;;;;;17.51;59.26;101270.91;10525705;28;20270;-48
2023/12/19 17:10:00;;;;;;;10.20;3.27;;;;;;;17.51;59.54;101275.47;10514636;28;20294;-49
2023/12/19 17:15:00;;;;;;;8.38;2.75;;;;;;;17.48;59.60;101282.19;10494521;28;20277;-48
2023/12/19 17:20:00;;;;;;;9.15;3.20;;;;;;;17.49;62.66;101278.44;10513436;28;20027;-48
2023/12/19 17:25:04;;;;;;;13.90;4.23;;;;;;;17.51;62.40;101291.56;10535545;28;20111;-49
2023/12/19 17:30:05;;;;;;;12.90;3.40;;;;;;;17.56;63.59;101282.72;10534359;28;20707;-51
2023/12/19 17:35:07;;;;;;;14.43;3.65;;;;;;;17.59;63.34;101282.94;10535562;28;20024;-52
2023/12/19 17:40:09;;;;;;;16.00;3.55;;;;;;;17.63;62.53;101272.47;10519429;28;20038;-49
2023/12/19 17:45:09;;;;;;;10.43;2.85;;;;;;;17.62;63.12;101263.63;10533940;28;20024;-48
2023/12/19 17:50:10;;;;;;;19.83;3.65;;;;;;;17.62;62.41;101273.53;10534314;28;20035;-48
2023/12/19 17:55:10;;;;;;;17.75;3.42;;;;;;;17.65;62.46;101281.88;10534786;28;20047;-51
2023/12/19 18:00:11;;;;;;;18.30;4.45;;;;;;;17.64;62.96;101299.03;10526931;28;20016;-50
2023/12/19 18:05:12;;;;;;;20.17;3.95;;;;;;;17.60;62.84;101287.22;10512036;28;20467;-48
2023/12/19 18:10:13;;;;;;;12.17;4.23;;;;;;;17.56;62.85;101282.72;10510769;28;20048;-50
2023/12/19 18:15:13;;;;;;;21.40;5.32;;;;;;;17.51;62.18;101296.91;10514116;28;20749;-51
2023/12/19 18:20:13;;;;;;;12.40;4.50;;;;;;;17.44;62.48;101296.44;10525199;28;20039;-49
2023/12/19 18:25:14;;;;;;;10.47;4.40;;;;;;;17.39;61.90;101299.91;10516222;28;20306;-49
2023/12/19 18:30:15;;;;;;;20.33;4.30;;;;;;;17.36;61.86;101295.09;10506976;28;20302;-52
2023/12/19 18:35:17;;;;;;;11.65;3.55;;;;;;;17.36;61.21;101289.75;10517336;28;20032;-49
2023/12/19 18:40:18;;;;;;;11.23;3.63;;;;;;;17.40;61.36;101296.16;10532249;28;20129;-50
2023/12/19 18:45:18;;;;;;;12.73;3.87;;;;;;;17.45;61.61;101298.03;10521656;28;20032;-48
2023/12/19 18:50:19;;;;;;;9.73;3.43;;;;;;;17.47;62.02;101299.34;10530896;28;20285;-51
2023/12/19 18:55:19;;;;;;;10.00;3.40;;;;;;;17.50;61.84;101292.63;10531870;28;20284;-49
2023/12/19 19:00:20;;;;;;;7.72;4.07;;;;;;;17.51;61.46;101295.03;10532856;28;20020;-49
2023/12/19 19:05:20;;;;;;;9.83;3.40;;;;;;;17.53;62.38;101306.31;10533134;28;20027;-49
2023/12/19 19:10:21;;;;;;;6.18;3.08;;;;;;;17.53;62.66;101298.28;10532591;28;20637;-52
2023/12/19 19:15:21;;;;;;;7.40;2.97;;;;;;;17.53;62.24;101310.88;10531935;28;20028;-50
2023/12/19 19:20:35;;;;;;;8.20;3.33;;;;;;;17.50;61.80;101306.03;10532252;28;20077;-52
2023/12/19 19:25:36;;;;;;;7.15;3.60;;;;;;;17.52;61.54;101317.28;10532918;28;20327;-48
2023/12/19 19:30:37;;;;;;;9.55;3.40;;;;;;;17.54;61.97;101299.06;10514457;28;20024;-50
2023/12/19 19:35:38;;;;;;;6.93;2.75;;;;;;;17.53;61.46;101300.94;10502800;28;20024;-51
2023/12/19 19:40:42;;;;;;;7.20;3.38;;;;;;;17.53;62.78;101310.88;10524898;28;20028;-50
2023/12/19 19:45:42;;;;;;;7.97;3.92;;;;;;;17.54;62.85;101305.25;10484922;28;20075;-53
2023/12/19 19:50:42;;;;;;;6.95;2.75;;;;;;;17.49;61.13;101312.47;10503931;28;20064;-51
2023/12/19 19:55:43;;;;;;;72.38;28.70;;;;;;;17.42;61.19;101323.50;10507516;28;20043;-48
2023/12/19 20:00:43;;;;;;;29.33;10.77;;;;;;;17.40;60.85;101322.16;10514494;28;20020;-47
2023/12/19 20:05:44;;;;;;;26.63;9.55;;;;;;;17.35;61.06;101317.63;10516917;28;20139;-52
2023/12/19 20:10:44;;;;;;;18.88;8.68;;;;;;;17.34;61.63;101318.69;10510099;28;20021;-52
2023/12/19 20:15:45;;;;;;;22.70;9.77;;;;;;;17.27;60.68;101325.41;10521820;28;20038;-50
2023/12/19 20:20:45;;;;;;;15.07;7.63;;;;;;;17.20;61.89;101323.81;10517413;28;20270;-47
2023/12/19 20:25:45;;;;;;;19.23;9.68;;;;;;;17.17;62.21;101320.91;10512489;28;20278;-50
2023/12/19 20:30:46;;;;;;;19.42;7.75;;;;;;;17.12;61.01;101323.56;10518255;28;20037;-48
2023/12/19 20:35:48;;;;;;;20.07;8.33;;;;;;;17.08;60.85;101334.03;10495036;28;20028;-48
2023/12/19 20:40:48;;;;;;;22.10;9.30;;;;;;;17.05;62.21;101334.56;10513031;28;20274;-50
2023/12/19 20:45:49;;;;;;;18.40;7.93;;;;;;;16.98;61.19;101327.88;10487914;28;20032;-47
2023/12/19 20:50:49;;;;;;;16.67;8.17;;;;;;;16.94;62.24;101338.34;10508531;28;20028;-51
2023/12/19 20:55:51;;;;;;;17.67;7.00;;;;;;;16.92;61.26;101330.53;10537601;28;20285;-48
2023/12/19 21:00:51;;;;;;;13.77;6.72;;;;;;;16.86;60.96;101328.94;10537203;28;20082;-48
2023/12/19 21:05:52;;;;;;;16.88;6.95;;;;;;;16.86;62.45;101323.59;10536116;28;20106;-49
2023/12/19 21:10:52;;;;;;;13.32;5.90;;;;;;;16.81;62.31;101330.81;10536466;28;20523;-51
2023/12/19 21:15:53;;;;;;;17.92;6.95;;;;;;;16.79;62.56;101335.63;10536989;28;20596;-49
2023/12/19 21:20:53;;;;;;;14.43;5.75;;;;;;;16.76;61.47;101323.59;10536223;28;20024;-50
2023/12/19 21:25:53;;;;;;;14.48;6.13;;;;;;;16.75;61.75;101331.91;10536484;28;20364;-48
2023/12/19 21:30:54;;;;;;;17.00;6.20;;;;;;;16.71;61.46;101317.44;10535702;28;20363;-48
2023/12/19 21:35:54;;;;;;;12.70;5.90;;;;;;;16.68;62.55;101324.13;10536159;28;20302;-49
2023/12/19 21:40:55;;;;;;;15.23;5.70;;;;;;;16.64;62.45;101323.81;10535280;28;20266;-49
2023/12/19 21:45:55;;;;;;;11.93;5.32;;;;;;;16.61;61.13;101321.69;10527632;28;20063;-49
2023/12/19 21:50:56;;;;;;;12.67;6.57;;;;;;;16.59;61.98;101307.78;10535294;28;20028;-51
2023/12/19 21:55:56;;;;;;;10.23;4.55;;;;;;;16.55;62.63;101316.59;10535395;28;20792;-49
2023/12/19 22:00:57;;;;;;;11.35;6.18;;;;;;;16.53;61.14;101322.22;10534512;28;20020;-51
2023/12/19 22:05:57;;;;;;;12.27;5.20;;;;;;;16.51;61.30;101332.38;10534829;28;20044;-47
2023/12/19 22:10:58;;;;;;;8.93;4.28;;;;;;;16.48;62.79;101326.78;10534082;28;20290;-51
2023/12/19 22:15:58;;;;;;;11.50;4.63;;;;;;;16.44;62.80;101325.69;10534352;28;20024;-50
2023/12/19 22:20:58;;;;;;;10.97;4.40;;;;;;;16.45;62.86;101324.59;10533853;28;20262;-49
2023/12/19 22:26:01;;;;;;;8.45;3.40;;;;;;;16.41;62.46;101334.25;10534188;28;20341;-48
2023/12/19 22:31:02;;;;;;;11.95;4.57;;;;;;;16.37;62.72;101325.94;10533413;28;20051;-49
2023/12/19 22:36:04;;;;;;;8.27;3.53;;;;;;;16.34;62.60;101324.63;10533722;28;20031;-49
2023/12/19 22:41:04;;;;;;;9.10;4.47;;;;;;;16.34;61.93;101326.50;10533349;28;20024;-51
2023/12/19 22:46:05;;;;;;;10.38;3.88;;;;;;;16.32;61.40;101342.00;10533531;28;20020;-50
2023/12/19 22:51:05;;;;;;;8.10;3.85;;;;;;;16.32;61.24;101333.97;10533085;28;20460;-48
2023/12/19 22:56:06;;;;;;;7.97;3.65;;;;;;;16.28;62.14;101317.63;10515659;28;20028;-47
2023/12/19 23:01:06;;;;;;;6.13;3.35;;;;;;;16.27;62.15;101302.66;10524756;28;20028;-48